Airlie, Virginia
Current Conditions -  °F | °C
As of 9:35 AM on Sunday 23 Nov 2014 (Local Time) from KHWY Reporting Station
Clear Clear  
Wind Chill: 42°   Ceiling: Unl
Heat Index: 45°   Visibility: 10mi
Dew Point: 29°   Wind: 6mph
Humidity: 55%   Direction: 220°SW
Pressure: 30.2"   Gusts: NA
Location:  38.6876°N, 77.819°W
Report Text: KHWY 231435Z AUTO 22005KT 10SM CLR 07/M01 A3020 RMK AO2 T00711015
Loading
Personal Weather Stations






























Interactive Weather Map New forecast layout! Learn more

10-Day Weather Forecast

Advertisements
Track Severe Weather on mobile